sensor_id;sensor_type;location;lat;lon;timestamp;P1;durP1;ratioP1;P2;durP2;ratioP2
47529;SDS011;33272;51.922;7.730;2023-01-28T00:00:49;4.77;;;4.37;;
47529;SDS011;33272;51.922;7.730;2023-01-28T00:03:17;4.70;;;4.30;;
47529;SDS011;33272;51.922;7.730;2023-01-28T00:05:44;4.83;;;4.23;;
47529;SDS011;33272;51.922;7.730;2023-01-28T00:08:12;5.10;;;4.70;;
47529;SDS011;33272;51.922;7.730;2023-01-28T00:10:39;5.70;;;4.70;;
47529;SDS011;33272;51.922;7.730;2023-01-28T00:13:09;5.23;;;4.73;;
47529;SDS011;33272;51.922;7.730;2023-01-28T00:15:38;5.20;;;4.77;;
47529;SDS011;33272;51.922;7.730;2023-01-28T00:18:05;5.27;;;4.87;;
47529;SDS011;33272;51.922;7.730;2023-01-28T00:20:34;5.00;;;4.60;;
47529;SDS011;33272;51.922;7.730;2023-01-28T00:23:01;5.33;;;4.93;;
47529;SDS011;33272;51.922;7.730;2023-01-28T00:25:28;5.43;;;4.93;;
47529;SDS011;33272;51.922;7.730;2023-01-28T00:27:55;5.23;;;4.73;;
47529;SDS011;33272;51.922;7.730;2023-01-28T00:30:22;4.87;;;4.40;;
47529;SDS011;33272;51.922;7.730;2023-01-28T00:32:49;5.20;;;4.50;;
47529;SDS011;33272;51.922;7.730;2023-01-28T00:35:18;5.97;;;4.53;;
47529;SDS011;33272;51.922;7.730;2023-01-28T00:37:46;5.40;;;4.70;;
47529;SDS011;33272;51.922;7.730;2023-01-28T00:40:14;4.67;;;4.37;;
47529;SDS011;33272;51.922;7.730;2023-01-28T00:42:41;4.87;;;4.37;;
47529;SDS011;33272;51.922;7.730;2023-01-28T00:45:08;5.30;;;4.17;;
47529;SDS011;33272;51.922;7.730;2023-01-28T00:47:36;5.13;;;4.47;;
47529;SDS011;33272;51.922;7.730;2023-01-28T00:50:03;4.77;;;4.37;;
47529;SDS011;33272;51.922;7.730;2023-01-28T00:52:31;4.40;;;3.83;;
47529;SDS011;33272;51.922;7.730;2023-01-28T00:55:00;4.53;;;4.17;;
47529;SDS011;33272;51.922;7.730;2023-01-28T00:57:27;4.23;;;3.60;;
47529;SDS011;33272;51.922;7.730;2023-01-28T00:59:54;5.50;;;3.90;;
47529;SDS011;33272;51.922;7.730;2023-01-28T01:02:21;4.00;;;3.70;;
47529;SDS011;33272;51.922;7.730;2023-01-28T01:04:48;3.80;;;3.50;;
47529;SDS011;33272;51.922;7.730;2023-01-28T01:07:23;3.63;;;3.33;;
47529;SDS011;33272;51.922;7.730;2023-01-28T01:10:00;4.00;;;3.70;;
47529;SDS011;33272;51.922;7.730;2023-01-28T01:12:27;4.07;;;3.77;;
47529;SDS011;33272;51.922;7.730;2023-01-28T01:14:55;4.10;;;3.80;;
47529;SDS011;33272;51.922;7.730;2023-01-28T01:17:22;4.47;;;4.17;;
47529;SDS011;33272;51.922;7.730;2023-01-28T01:19:50;5.80;;;4.03;;
47529;SDS011;33272;51.922;7.730;2023-01-28T01:22:17;4.23;;;3.53;;
47529;SDS011;33272;51.922;7.730;2023-01-28T01:24:44;4.23;;;3.83;;
47529;SDS011;33272;51.922;7.730;2023-01-28T01:27:14;5.10;;;3.77;;
47529;SDS011;33272;51.922;7.730;2023-01-28T01:29:41;3.83;;;3.53;;
47529;SDS011;33272;51.922;7.730;2023-01-28T01:32:08;3.60;;;3.30;;
47529;SDS011;33272;51.922;7.730;2023-01-28T01:34:34;4.10;;;3.43;;
47529;SDS011;33272;51.922;7.730;2023-01-28T01:37:01;5.80;;;3.80;;
47529;SDS011;33272;51.922;7.730;2023-01-28T01:39:30;3.40;;;3.13;;
47529;SDS011;33272;51.922;7.730;2023-01-28T01:41:57;4.60;;;3.50;;
47529;SDS011;33272;51.922;7.730;2023-01-28T01:47:28;4.03;;;3.63;;
47529;SDS011;33272;51.922;7.730;2023-01-28T01:50:06;4.47;;;4.07;;
47529;SDS011;33272;51.922;7.730;2023-01-28T01:52:41;4.10;;;3.80;;
47529;SDS011;33272;51.922;7.730;2023-01-28T01:55:10;4.07;;;3.77;;
47529;SDS011;33272;51.922;7.730;2023-01-28T01:57:41;3.97;;;3.50;;
47529;SDS011;33272;51.922;7.730;2023-01-28T02:00:13;4.03;;;3.63;;
47529;SDS011;33272;51.922;7.730;2023-01-28T02:02:43;3.77;;;3.47;;
47529;SDS011;33272;51.922;7.730;2023-01-28T02:05:14;3.97;;;3.67;;
47529;SDS011;33272;51.922;7.730;2023-01-28T02:07:45;5.30;;;4.03;;
47529;SDS011;33272;51.922;7.730;2023-01-28T02:10:16;3.80;;;3.40;;
47529;SDS011;33272;51.922;7.730;2023-01-28T02:12:44;4.00;;;3.70;;
47529;SDS011;33272;51.922;7.730;2023-01-28T02:15:19;4.10;;;3.70;;
47529;SDS011;33272;51.922;7.730;2023-01-28T02:17:49;4.50;;;3.83;;
47529;SDS011;33272;51.922;7.730;2023-01-28T02:20:18;4.33;;;3.93;;
47529;SDS011;33272;51.922;7.730;2023-01-28T02:23:05;4.67;;;3.87;;
47529;SDS011;33272;51.922;7.730;2023-01-28T02:26:02;3.90;;;3.60;;
47529;SDS011;33272;51.922;7.730;2023-01-28T02:29:13;3.83;;;3.50;;
47529;SDS011;33272;51.922;7.730;2023-01-28T02:31:47;6.13;;;3.60;;
47529;SDS011;33272;51.922;7.730;2023-01-28T02:34:22;3.87;;;3.53;;
47529;SDS011;33272;51.922;7.730;2023-01-28T02:37:01;3.93;;;3.63;;
47529;SDS011;33272;51.922;7.730;2023-01-28T02:39:37;3.67;;;3.37;;
47529;SDS011;33272;51.922;7.730;2023-01-28T02:42:12;4.37;;;3.80;;
47529;SDS011;33272;51.922;7.730;2023-01-28T02:44:44;4.00;;;3.30;;
47529;SDS011;33272;51.922;7.730;2023-01-28T02:47:12;4.10;;;3.63;;
47529;SDS011;33272;51.922;7.730;2023-01-28T02:49:58;4.10;;;3.80;;
47529;SDS011;33272;51.922;7.730;2023-01-28T02:52:29;4.30;;;3.67;;
47529;SDS011;33272;51.922;7.730;2023-01-28T02:55:29;4.10;;;3.80;;
47529;SDS011;33272;51.922;7.730;2023-01-28T02:58:05;4.13;;;3.43;;
47529;SDS011;33272;51.922;7.730;2023-01-28T03:00:45;4.83;;;3.90;;
47529;SDS011;33272;51.922;7.730;2023-01-28T03:03:20;4.20;;;3.80;;
47529;SDS011;33272;51.922;7.730;2023-01-28T03:05:54;4.10;;;3.60;;
47529;SDS011;33272;51.922;7.730;2023-01-28T03:08:31;4.10;;;3.70;;
47529;SDS011;33272;51.922;7.730;2023-01-28T03:11:21;4.80;;;3.67;;
47529;SDS011;33272;51.922;7.730;2023-01-28T03:14:07;4.60;;;3.63;;
47529;SDS011;33272;51.922;7.730;2023-01-28T03:16:54;3.80;;;3.50;;
47529;SDS011;33272;51.922;7.730;2023-01-28T03:19:43;3.70;;;3.40;;
47529;SDS011;33272;51.922;7.730;2023-01-28T03:22:28;4.07;;;3.77;;
47529;SDS011;33272;51.922;7.730;2023-01-28T03:25:18;4.30;;;3.90;;
47529;SDS011;33272;51.922;7.730;2023-01-28T03:28:07;4.20;;;3.80;;
47529;SDS011;33272;51.922;7.730;2023-01-28T03:30:55;6.43;;;4.00;;
47529;SDS011;33272;51.922;7.730;2023-01-28T03:33:49;4.10;;;3.70;;
47529;SDS011;33272;51.922;7.730;2023-01-28T03:36:35;5.40;;;4.33;;
47529;SDS011;33272;51.922;7.730;2023-01-28T03:39:12;4.60;;;4.20;;
47529;SDS011;33272;51.922;7.730;2023-01-28T03:41:39;4.57;;;4.17;;
47529;SDS011;33272;51.922;7.730;2023-01-28T03:44:06;6.07;;;4.47;;
47529;SDS011;33272;51.922;7.730;2023-01-28T03:46:50;4.63;;;3.87;;
47529;SDS011;33272;51.922;7.730;2023-01-28T03:49:19;5.07;;;4.17;;
47529;SDS011;33272;51.922;7.730;2023-01-28T03:51:45;4.50;;;4.10;;
47529;SDS011;33272;51.922;7.730;2023-01-28T03:54:12;5.00;;;4.50;;
47529;SDS011;33272;51.922;7.730;2023-01-28T03:56:39;4.67;;;3.90;;
47529;SDS011;33272;51.922;7.730;2023-01-28T03:59:06;4.60;;;4.07;;
47529;SDS011;33272;51.922;7.730;2023-01-28T04:01:33;4.90;;;4.37;;
47529;SDS011;33272;51.922;7.730;2023-01-28T04:04:00;4.73;;;3.90;;
47529;SDS011;33272;51.922;7.730;2023-01-28T04:06:29;4.37;;;3.97;;
47529;SDS011;33272;51.922;7.730;2023-01-28T04:08:56;4.73;;;4.33;;
47529;SDS011;33272;51.922;7.730;2023-01-28T04:11:24;5.27;;;4.43;;
47529;SDS011;33272;51.922;7.730;2023-01-28T04:13:51;4.40;;;4.00;;
47529;SDS011;33272;51.922;7.730;2023-01-28T04:16:18;5.27;;;4.13;;
47529;SDS011;33272;51.922;7.730;2023-01-28T04:18:45;5.93;;;4.57;;
47529;SDS011;33272;51.922;7.730;2023-01-28T04:21:13;4.53;;;4.07;;
47529;SDS011;33272;51.922;7.730;2023-01-28T04:23:41;4.57;;;4.17;;
47529;SDS011;33272;51.922;7.730;2023-01-28T04:26:08;4.50;;;4.10;;
47529;SDS011;33272;51.922;7.730;2023-01-28T04:28:35;4.40;;;4.00;;
47529;SDS011;33272;51.922;7.730;2023-01-28T04:31:02;4.67;;;4.10;;
47529;SDS011;33272;51.922;7.730;2023-01-28T04:33:29;4.93;;;4.43;;
47529;SDS011;33272;51.922;7.730;2023-01-28T04:35:56;4.90;;;4.20;;
47529;SDS011;33272;51.922;7.730;2023-01-28T04:38:23;4.53;;;4.10;;
47529;SDS011;33272;51.922;7.730;2023-01-28T04:40:51;4.37;;;4.00;;
47529;SDS011;33272;51.922;7.730;2023-01-28T04:43:19;4.17;;;3.80;;
47529;SDS011;33272;51.922;7.730;2023-01-28T04:45:46;4.73;;;4.33;;
47529;SDS011;33272;51.922;7.730;2023-01-28T04:48:14;7.73;;;4.50;;
47529;SDS011;33272;51.922;7.730;2023-01-28T04:50:42;4.53;;;4.10;;
47529;SDS011;33272;51.922;7.730;2023-01-28T04:53:09;6.40;;;5.00;;
47529;SDS011;33272;51.922;7.730;2023-01-28T04:55:37;4.10;;;3.70;;
47529;SDS011;33272;51.922;7.730;2023-01-28T04:58:06;5.40;;;4.10;;
47529;SDS011;33272;51.922;7.730;2023-01-28T05:00:33;4.47;;;4.07;;
47529;SDS011;33272;51.922;7.730;2023-01-28T05:03:00;5.10;;;4.23;;
47529;SDS011;33272;51.922;7.730;2023-01-28T05:05:27;4.83;;;4.43;;
47529;SDS011;33272;51.922;7.730;2023-01-28T05:07:55;4.83;;;4.30;;
47529;SDS011;33272;51.922;7.730;2023-01-28T05:10:23;4.80;;;4.30;;
47529;SDS011;33272;51.922;7.730;2023-01-28T05:12:52;7.00;;;4.67;;
47529;SDS011;33272;51.922;7.730;2023-01-28T05:15:21;4.40;;;4.00;;
47529;SDS011;33272;51.922;7.730;2023-01-28T05:17:48;4.60;;;4.20;;
47529;SDS011;33272;51.922;7.730;2023-01-28T05:20:15;5.63;;;4.30;;
47529;SDS011;33272;51.922;7.730;2023-01-28T05:22:42;5.10;;;4.60;;
47529;SDS011;33272;51.922;7.730;2023-01-28T05:25:09;5.20;;;4.60;;
47529;SDS011;33272;51.922;7.730;2023-01-28T05:27:36;5.20;;;4.23;;
47529;SDS011;33272;51.922;7.730;2023-01-28T05:30:04;4.70;;;4.30;;
47529;SDS011;33272;51.922;7.730;2023-01-28T05:32:34;4.60;;;4.20;;
47529;SDS011;33272;51.922;7.730;2023-01-28T05:35:01;6.43;;;4.43;;
47529;SDS011;33272;51.922;7.730;2023-01-28T05:37:28;5.27;;;4.77;;
47529;SDS011;33272;51.922;7.730;2023-01-28T05:39:55;4.87;;;4.50;;
47529;SDS011;33272;51.922;7.730;2023-01-28T05:42:22;4.57;;;4.23;;
47529;SDS011;33272;51.922;7.730;2023-01-28T05:44:49;5.27;;;4.77;;
47529;SDS011;33272;51.922;7.730;2023-01-28T05:47:16;5.10;;;4.70;;
47529;SDS011;33272;51.922;7.730;2023-01-28T05:49:44;48.57;;;27.93;;
47529;SDS011;33272;51.922;7.730;2023-01-28T05:52:11;29.97;;;18.73;;
47529;SDS011;33272;51.922;7.730;2023-01-28T05:54:38;5.60;;;5.10;;
47529;SDS011;33272;51.922;7.730;2023-01-28T05:57:05;5.50;;;4.60;;
47529;SDS011;33272;51.922;7.730;2023-01-28T05:59:32;4.87;;;4.43;;
47529;SDS011;33272;51.922;7.730;2023-01-28T06:01:59;5.23;;;4.73;;
47529;SDS011;33272;51.922;7.730;2023-01-28T06:04:26;5.23;;;4.30;;
47529;SDS011;33272;51.922;7.730;2023-01-28T06:06:54;4.80;;;4.33;;
47529;SDS011;33272;51.922;7.730;2023-01-28T06:09:21;5.77;;;4.97;;
47529;SDS011;33272;51.922;7.730;2023-01-28T06:11:49;5.20;;;4.80;;
47529;SDS011;33272;51.922;7.730;2023-01-28T06:14:16;5.00;;;4.60;;
47529;SDS011;33272;51.922;7.730;2023-01-28T06:16:43;7.17;;;5.57;;
47529;SDS011;33272;51.922;7.730;2023-01-28T06:19:10;5.73;;;5.17;;
47529;SDS011;33272;51.922;7.730;2023-01-28T06:21:37;7.20;;;5.17;;
47529;SDS011;33272;51.922;7.730;2023-01-28T06:24:08;5.30;;;4.90;;
47529;SDS011;33272;51.922;7.730;2023-01-28T06:26:35;5.70;;;5.20;;
47529;SDS011;33272;51.922;7.730;2023-01-28T06:29:02;6.27;;;5.63;;
47529;SDS011;33272;51.922;7.730;2023-01-28T06:31:29;5.93;;;4.90;;
47529;SDS011;33272;51.922;7.730;2023-01-28T06:33:57;5.70;;;5.10;;
47529;SDS011;33272;51.922;7.730;2023-01-28T06:36:24;5.63;;;5.17;;
47529;SDS011;33272;51.922;7.730;2023-01-28T06:38:51;5.80;;;4.57;;
47529;SDS011;33272;51.922;7.730;2023-01-28T06:41:19;5.20;;;4.40;;
47529;SDS011;33272;51.922;7.730;2023-01-28T06:43:46;5.13;;;4.67;;
47529;SDS011;33272;51.922;7.730;2023-01-28T06:46:13;5.10;;;4.70;;
47529;SDS011;33272;51.922;7.730;2023-01-28T06:48:40;5.63;;;5.03;;
47529;SDS011;33272;51.922;7.730;2023-01-28T06:51:07;6.93;;;5.20;;
47529;SDS011;33272;51.922;7.730;2023-01-28T06:53:34;5.90;;;5.10;;
47529;SDS011;33272;51.922;7.730;2023-01-28T06:56:01;6.10;;;5.50;;
47529;SDS011;33272;51.922;7.730;2023-01-28T06:58:30;6.47;;;5.87;;
47529;SDS011;33272;51.922;7.730;2023-01-28T07:00:57;6.20;;;5.60;;
47529;SDS011;33272;51.922;7.730;2023-01-28T07:03:24;6.47;;;5.40;;
47529;SDS011;33272;51.922;7.730;2023-01-28T07:05:51;5.60;;;5.10;;
47529;SDS011;33272;51.922;7.730;2023-01-28T07:08:18;6.20;;;4.70;;
47529;SDS011;33272;51.922;7.730;2023-01-28T07:10:45;6.13;;;4.80;;
47529;SDS011;33272;51.922;7.730;2023-01-28T07:13:13;5.83;;;5.23;;
47529;SDS011;33272;51.922;7.730;2023-01-28T07:15:41;6.17;;;5.57;;
47529;SDS011;33272;51.922;7.730;2023-01-28T07:18:08;6.57;;;5.97;;
47529;SDS011;33272;51.922;7.730;2023-01-28T07:20:35;6.53;;;5.93;;
47529;SDS011;33272;51.922;7.730;2023-01-28T07:23:02;5.93;;;5.40;;
47529;SDS011;33272;51.922;7.730;2023-01-28T07:25:29;7.50;;;6.27;;
47529;SDS011;33272;51.922;7.730;2023-01-28T07:27:56;5.93;;;5.43;;
47529;SDS011;33272;51.922;7.730;2023-01-28T07:30:23;5.97;;;5.37;;
47529;SDS011;33272;51.922;7.730;2023-01-28T07:32:56;6.00;;;5.40;;
47529;SDS011;33272;51.922;7.730;2023-01-28T07:35:24;6.57;;;5.00;;
47529;SDS011;33272;51.922;7.730;2023-01-28T07:37:52;6.53;;;5.07;;
47529;SDS011;33272;51.922;7.730;2023-01-28T07:40:21;7.30;;;6.20;;
47529;SDS011;33272;51.922;7.730;2023-01-28T07:42:48;6.10;;;5.50;;
47529;SDS011;33272;51.922;7.730;2023-01-28T07:45:16;6.27;;;5.77;;
47529;SDS011;33272;51.922;7.730;2023-01-28T07:47:43;5.63;;;5.23;;
47529;SDS011;33272;51.922;7.730;2023-01-28T07:50:12;7.27;;;5.00;;
47529;SDS011;33272;51.922;7.730;2023-01-28T07:52:40;6.00;;;5.40;;
47529;SDS011;33272;51.922;7.730;2023-01-28T07:55:10;6.53;;;5.67;;
47529;SDS011;33272;51.922;7.730;2023-01-28T07:57:46;6.23;;;5.50;;
47529;SDS011;33272;51.922;7.730;2023-01-28T08:00:15;5.83;;;5.33;;
47529;SDS011;33272;51.922;7.730;2023-01-28T08:02:43;5.60;;;5.10;;
47529;SDS011;33272;51.922;7.730;2023-01-28T08:05:13;6.00;;;5.33;;
47529;SDS011;33272;51.922;7.730;2023-01-28T08:07:42;5.50;;;5.00;;
47529;SDS011;33272;51.922;7.730;2023-01-28T08:10:09;5.77;;;5.30;;
47529;SDS011;33272;51.922;7.730;2023-01-28T08:12:37;5.53;;;5.13;;
47529;SDS011;33272;51.922;7.730;2023-01-28T08:15:05;6.13;;;5.53;;
47529;SDS011;33272;51.922;7.730;2023-01-28T08:17:33;5.30;;;4.87;;
47529;SDS011;33272;51.922;7.730;2023-01-28T08:20:00;5.70;;;5.20;;
47529;SDS011;33272;51.922;7.730;2023-01-28T08:22:29;5.90;;;5.40;;
47529;SDS011;33272;51.922;7.730;2023-01-28T08:24:56;6.00;;;5.50;;
47529;SDS011;33272;51.922;7.730;2023-01-28T08:27:23;6.90;;;6.20;;
47529;SDS011;33272;51.922;7.730;2023-01-28T08:29:50;6.10;;;5.37;;
47529;SDS011;33272;51.922;7.730;2023-01-28T08:32:17;6.43;;;5.80;;
47529;SDS011;33272;51.922;7.730;2023-01-28T08:34:44;5.90;;;5.10;;
47529;SDS011;33272;51.922;7.730;2023-01-28T08:37:11;6.40;;;5.83;;
47529;SDS011;33272;51.922;7.730;2023-01-28T08:39:39;7.93;;;7.13;;
47529;SDS011;33272;51.922;7.730;2023-01-28T08:42:06;7.23;;;6.63;;
47529;SDS011;33272;51.922;7.730;2023-01-28T08:44:34;7.67;;;5.90;;
47529;SDS011;33272;51.922;7.730;2023-01-28T08:47:01;6.27;;;5.67;;
47529;SDS011;33272;51.922;7.730;2023-01-28T08:49:28;7.47;;;5.30;;
47529;SDS011;33272;51.922;7.730;2023-01-28T08:51:55;6.33;;;5.47;;
47529;SDS011;33272;51.922;7.730;2023-01-28T08:54:22;5.87;;;5.30;;
47529;SDS011;33272;51.922;7.730;2023-01-28T08:56:50;6.80;;;5.70;;
47529;SDS011;33272;51.922;7.730;2023-01-28T08:59:17;5.70;;;5.20;;
47529;SDS011;33272;51.922;7.730;2023-01-28T09:01:44;5.40;;;4.90;;
47529;SDS011;33272;51.922;7.730;2023-01-28T09:04:11;5.67;;;5.17;;
47529;SDS011;33272;51.922;7.730;2023-01-28T09:06:38;5.93;;;5.33;;
47529;SDS011;33272;51.922;7.730;2023-01-28T09:09:05;5.83;;;5.33;;
47529;SDS011;33272;51.922;7.730;2023-01-28T09:11:32;5.33;;;4.83;;
47529;SDS011;33272;51.922;7.730;2023-01-28T09:14:00;5.80;;;5.20;;
47529;SDS011;33272;51.922;7.730;2023-01-28T09:16:27;6.43;;;5.50;;
47529;SDS011;33272;51.922;7.730;2023-01-28T09:18:54;5.33;;;4.83;;
47529;SDS011;33272;51.922;7.730;2023-01-28T09:21:21;6.30;;;5.80;;
47529;SDS011;33272;51.922;7.730;2023-01-28T09:23:48;5.40;;;4.90;;
47529;SDS011;33272;51.922;7.730;2023-01-28T09:26:15;6.00;;;5.40;;
47529;SDS011;33272;51.922;7.730;2023-01-28T09:28:42;5.20;;;4.73;;
47529;SDS011;33272;51.922;7.730;2023-01-28T09:31:11;6.10;;;5.20;;
47529;SDS011;33272;51.922;7.730;2023-01-28T09:33:38;6.67;;;5.20;;
47529;SDS011;33272;51.922;7.730;2023-01-28T09:36:06;5.33;;;4.93;;
47529;SDS011;33272;51.922;7.730;2023-01-28T09:38:36;5.43;;;4.90;;
47529;SDS011;33272;51.922;7.730;2023-01-28T09:41:08;6.07;;;5.07;;
47529;SDS011;33272;51.922;7.730;2023-01-28T09:44:05;6.27;;;5.47;;
47529;SDS011;33272;51.922;7.730;2023-01-28T09:46:51;6.37;;;5.70;;
47529;SDS011;33272;51.922;7.730;2023-01-28T09:49:19;7.53;;;5.80;;
47529;SDS011;33272;51.922;7.730;2023-01-28T09:51:57;6.30;;;5.77;;
47529;SDS011;33272;51.922;7.730;2023-01-28T09:54:33;7.13;;;6.43;;
47529;SDS011;33272;51.922;7.730;2023-01-28T09:57:11;7.33;;;6.63;;
47529;SDS011;33272;51.922;7.730;2023-01-28T09:59:46;7.43;;;6.83;;
47529;SDS011;33272;51.922;7.730;2023-01-28T10:02:22;7.87;;;7.17;;
47529;SDS011;33272;51.922;7.730;2023-01-28T10:05:12;8.57;;;7.57;;
47529;SDS011;33272;51.922;7.730;2023-01-28T10:07:51;9.60;;;7.57;;
47529;SDS011;33272;51.922;7.730;2023-01-28T10:10:31;8.07;;;7.27;;
47529;SDS011;33272;51.922;7.730;2023-01-28T10:13:11;10.43;;;9.33;;
47529;SDS011;33272;51.922;7.730;2023-01-28T10:15:53;9.73;;;8.87;;
47529;SDS011;33272;51.922;7.730;2023-01-28T10:18:34;10.57;;;9.47;;
47529;SDS011;33272;51.922;7.730;2023-01-28T10:21:09;10.20;;;9.30;;
47529;SDS011;33272;51.922;7.730;2023-01-28T10:23:45;11.33;;;10.23;;
47529;SDS011;33272;51.922;7.730;2023-01-28T10:26:23;10.97;;;9.77;;
47529;SDS011;33272;51.922;7.730;2023-01-28T10:28:55;11.83;;;10.73;;
47529;SDS011;33272;51.922;7.730;2023-01-28T10:31:27;10.47;;;9.47;;
47529;SDS011;33272;51.922;7.730;2023-01-28T10:34:02;10.73;;;9.63;;
47529;SDS011;33272;51.922;7.730;2023-01-28T10:36:29;10.43;;;9.37;;
47529;SDS011;33272;51.922;7.730;2023-01-28T10:38:56;10.60;;;9.60;;
47529;SDS011;33272;51.922;7.730;2023-01-28T10:41:23;11.10;;;10.00;;
47529;SDS011;33272;51.922;7.730;2023-01-28T10:43:50;11.57;;;10.50;;
47529;SDS011;33272;51.922;7.730;2023-01-28T10:46:18;12.00;;;10.80;;
47529;SDS011;33272;51.922;7.730;2023-01-28T10:48:53;10.97;;;9.97;;
47529;SDS011;33272;51.922;7.730;2023-01-28T10:51:32;12.80;;;11.40;;
47529;SDS011;33272;51.922;7.730;2023-01-28T10:54:02;12.77;;;11.43;;
47529;SDS011;33272;51.922;7.730;2023-01-28T10:56:42;14.20;;;11.67;;
47529;SDS011;33272;51.922;7.730;2023-01-28T10:59:17;12.50;;;11.20;;
47529;SDS011;33272;51.922;7.730;2023-01-28T11:01:48;11.80;;;10.27;;
47529;SDS011;33272;51.922;7.730;2023-01-28T11:04:18;12.00;;;10.90;;
47529;SDS011;33272;51.922;7.730;2023-01-28T11:06:56;13.63;;;12.33;;
47529;SDS011;33272;51.922;7.730;2023-01-28T11:09:26;14.77;;;13.17;;
47529;SDS011;33272;51.922;7.730;2023-01-28T11:11:55;16.53;;;13.70;;
47529;SDS011;33272;51.922;7.730;2023-01-28T11:14:24;15.83;;;13.93;;
47529;SDS011;33272;51.922;7.730;2023-01-28T11:16:53;16.33;;;13.23;;
47529;SDS011;33272;51.922;7.730;2023-01-28T11:19:25;14.20;;;12.70;;
47529;SDS011;33272;51.922;7.730;2023-01-28T11:22:00;15.53;;;13.90;;
47529;SDS011;33272;51.922;7.730;2023-01-28T11:24:28;15.20;;;13.60;;
47529;SDS011;33272;51.922;7.730;2023-01-28T11:27:00;14.60;;;13.00;;
47529;SDS011;33272;51.922;7.730;2023-01-28T11:29:40;16.13;;;13.73;;
47529;SDS011;33272;51.922;7.730;2023-01-28T11:32:15;14.70;;;13.13;;
47529;SDS011;33272;51.922;7.730;2023-01-28T11:34:47;14.40;;;12.90;;
47529;SDS011;33272;51.922;7.730;2023-01-28T11:37:19;16.03;;;14.43;;
47529;SDS011;33272;51.922;7.730;2023-01-28T11:39:48;14.50;;;13.03;;
47529;SDS011;33272;51.922;7.730;2023-01-28T11:42:28;13.33;;;11.93;;
47529;SDS011;33272;51.922;7.730;2023-01-28T11:44:56;12.53;;;11.27;;
47529;SDS011;33272;51.922;7.730;2023-01-28T11:50:22;13.27;;;11.60;;
47529;SDS011;33272;51.922;7.730;2023-01-28T11:59:36;14.23;;;12.80;;
47529;SDS011;33272;51.922;7.730;2023-01-28T12:02:23;14.37;;;12.87;;
47529;SDS011;33272;51.922;7.730;2023-01-28T12:05:13;13.73;;;12.30;;
47529;SDS011;33272;51.922;7.730;2023-01-28T12:08:03;12.90;;;11.53;;
47529;SDS011;33272;51.922;7.730;2023-01-28T12:10:45;13.03;;;11.73;;
47529;SDS011;33272;51.922;7.730;2023-01-28T12:13:28;14.80;;;11.47;;
47529;SDS011;33272;51.922;7.730;2023-01-28T12:16:19;13.97;;;12.23;;
47529;SDS011;33272;51.922;7.730;2023-01-28T12:22:22;13.70;;;11.97;;
47529;SDS011;33272;51.922;7.730;2023-01-28T12:25:38;12.87;;;11.57;;
47529;SDS011;33272;51.922;7.730;2023-01-28T12:28:25;13.07;;;11.40;;
47529;SDS011;33272;51.922;7.730;2023-01-28T12:31:24;13.87;;;11.27;;
47529;SDS011;33272;51.922;7.730;2023-01-28T12:34:18;11.80;;;10.43;;
47529;SDS011;33272;51.922;7.730;2023-01-28T12:37:24;13.20;;;11.27;;
47529;SDS011;33272;51.922;7.730;2023-01-28T12:40:05;12.80;;;11.50;;
47529;SDS011;33272;51.922;7.730;2023-01-28T12:42:52;12.00;;;10.70;;
47529;SDS011;33272;51.922;7.730;2023-01-28T12:45:25;13.27;;;11.23;;
47529;SDS011;33272;51.922;7.730;2023-01-28T12:47:59;13.10;;;10.83;;
47529;SDS011;33272;51.922;7.730;2023-01-28T12:50:35;13.27;;;11.87;;
47529;SDS011;33272;51.922;7.730;2023-01-28T12:53:10;11.63;;;9.87;;
47529;SDS011;33272;51.922;7.730;2023-01-28T12:55:49;12.10;;;10.33;;
47529;SDS011;33272;51.922;7.730;2023-01-28T12:58:27;13.37;;;11.20;;
47529;SDS011;33272;51.922;7.730;2023-01-28T13:01:04;11.83;;;10.43;;
47529;SDS011;33272;51.922;7.730;2023-01-28T13:03:37;11.53;;;9.53;;
47529;SDS011;33272;51.922;7.730;2023-01-28T13:06:11;10.80;;;9.67;;
47529;SDS011;33272;51.922;7.730;2023-01-28T13:08:42;13.03;;;10.87;;
47529;SDS011;33272;51.922;7.730;2023-01-28T13:11:11;12.73;;;10.40;;
47529;SDS011;33272;51.922;7.730;2023-01-28T13:13:43;11.00;;;9.90;;
47529;SDS011;33272;51.922;7.730;2023-01-28T13:16:12;11.97;;;10.17;;
47529;SDS011;33272;51.922;7.730;2023-01-28T13:18:42;12.20;;;9.97;;
47529;SDS011;33272;51.922;7.730;2023-01-28T13:21:12;12.03;;;10.83;;
47529;SDS011;33272;51.922;7.730;2023-01-28T13:24:03;11.27;;;10.17;;
47529;SDS011;33272;51.922;7.730;2023-01-28T13:26:46;11.07;;;9.63;;
47529;SDS011;33272;51.922;7.730;2023-01-28T13:29:20;10.80;;;9.63;;
47529;SDS011;33272;51.922;7.730;2023-01-28T13:31:55;10.07;;;9.07;;
47529;SDS011;33272;51.922;7.730;2023-01-28T13:34:29;9.73;;;8.67;;
47529;SDS011;33272;51.922;7.730;2023-01-28T13:37:03;10.20;;;8.90;;
47529;SDS011;33272;51.922;7.730;2023-01-28T13:39:48;10.47;;;9.20;;
47529;SDS011;33272;51.922;7.730;2023-01-28T13:42:22;11.47;;;9.37;;
47529;SDS011;33272;51.922;7.730;2023-01-28T13:44:52;10.43;;;9.33;;
47529;SDS011;33272;51.922;7.730;2023-01-28T13:47:22;10.40;;;8.87;;
47529;SDS011;33272;51.922;7.730;2023-01-28T13:49:55;10.90;;;9.03;;
47529;SDS011;33272;51.922;7.730;2023-01-28T13:52:27;11.27;;;9.37;;
47529;SDS011;33272;51.922;7.730;2023-01-28T13:55:01;10.73;;;9.60;;
47529;SDS011;33272;51.922;7.730;2023-01-28T13:57:46;10.93;;;9.30;;
47529;SDS011;33272;51.922;7.730;2023-01-28T14:01:09;10.10;;;9.10;;
47529;SDS011;33272;51.922;7.730;2023-01-28T14:04:07;10.63;;;8.87;;
47529;SDS011;33272;51.922;7.730;2023-01-28T14:07:09;11.03;;;8.93;;
47529;SDS011;33272;51.922;7.730;2023-01-28T14:10:01;10.20;;;8.93;;
47529;SDS011;33272;51.922;7.730;2023-01-28T14:13:02;10.17;;;8.90;;
47529;SDS011;33272;51.922;7.730;2023-01-28T14:15:48;10.10;;;9.07;;
47529;SDS011;33272;51.922;7.730;2023-01-28T14:18:30;10.37;;;9.23;;
47529;SDS011;33272;51.922;7.730;2023-01-28T14:21:03;10.43;;;9.43;;
47529;SDS011;33272;51.922;7.730;2023-01-28T14:23:38;9.77;;;8.77;;
47529;SDS011;33272;51.922;7.730;2023-01-28T14:26:18;10.00;;;8.87;;
47529;SDS011;33272;51.922;7.730;2023-01-28T14:29:03;10.10;;;9.10;;
47529;SDS011;33272;51.922;7.730;2023-01-28T14:31:41;9.50;;;8.53;;
47529;SDS011;33272;51.922;7.730;2023-01-28T14:34:21;10.20;;;8.93;;
47529;SDS011;33272;51.922;7.730;2023-01-28T14:36:52;10.83;;;9.67;;
47529;SDS011;33272;51.922;7.730;2023-01-28T14:39:24;9.73;;;8.73;;
47529;SDS011;33272;51.922;7.730;2023-01-28T14:41:55;10.10;;;9.10;;
47529;SDS011;33272;51.922;7.730;2023-01-28T14:44:26;10.97;;;9.50;;
47529;SDS011;33272;51.922;7.730;2023-01-28T14:47:01;10.73;;;9.60;;
47529;SDS011;33272;51.922;7.730;2023-01-28T14:50:01;11.67;;;9.10;;
47529;SDS011;33272;51.922;7.730;2023-01-28T14:53:06;10.13;;;8.83;;
47529;SDS011;33272;51.922;7.730;2023-01-28T14:55:52;9.37;;;8.47;;
47529;SDS011;33272;51.922;7.730;2023-01-28T14:58:26;11.63;;;9.57;;
47529;SDS011;33272;51.922;7.730;2023-01-28T15:00:59;10.67;;;9.37;;
47529;SDS011;33272;51.922;7.730;2023-01-28T15:03:26;9.83;;;8.83;;
47529;SDS011;33272;51.922;7.730;2023-01-28T15:08:42;10.43;;;9.33;;
47529;SDS011;33272;51.922;7.730;2023-01-28T15:11:10;10.10;;;9.00;;
47529;SDS011;33272;51.922;7.730;2023-01-28T15:13:42;10.83;;;9.73;;
47529;SDS011;33272;51.922;7.730;2023-01-28T15:16:16;10.53;;;9.43;;
47529;SDS011;33272;51.922;7.730;2023-01-28T15:18:46;11.83;;;9.00;;
47529;SDS011;33272;51.922;7.730;2023-01-28T15:21:19;12.23;;;10.87;;
47529;SDS011;33272;51.922;7.730;2023-01-28T15:23:47;10.30;;;9.20;;
47529;SDS011;33272;51.922;7.730;2023-01-28T15:26:18;11.20;;;9.50;;
47529;SDS011;33272;51.922;7.730;2023-01-28T15:28:48;13.77;;;9.90;;
47529;SDS011;33272;51.922;7.730;2023-01-28T15:31:20;10.70;;;9.10;;